sensor_id;sensor_type;location;lat;lon;timestamp;temperature;humidity
16976;DHT22;8604;48.148;-1.786;2023-08-07T00:00:36;13.80;99.90
16976;DHT22;8604;48.148;-1.786;2023-08-07T00:03:06;13.80;99.90
16976;DHT22;8604;48.148;-1.786;2023-08-07T00:05:35;13.70;99.90
16976;DHT22;8604;48.148;-1.786;2023-08-07T00:08:03;13.70;99.90
16976;DHT22;8604;48.148;-1.786;2023-08-07T00:10:32;13.70;99.90
16976;DHT22;8604;48.148;-1.786;2023-08-07T00:13:00;13.60;99.90
16976;DHT22;8604;48.148;-1.786;2023-08-07T00:15:28;13.60;99.90
16976;DHT22;8604;48.148;-1.786;2023-08-07T00:17:56;13.60;99.90
16976;DHT22;8604;48.148;-1.786;2023-08-07T00:20:26;13.60;99.90
16976;DHT22;8604;48.148;-1.786;2023-08-07T00:22:55;13.60;99.90
16976;DHT22;8604;48.148;-1.786;2023-08-07T00:25:23;13.60;99.90
16976;DHT22;8604;48.148;-1.786;2023-08-07T00:27:57;13.50;99.90
16976;DHT22;8604;48.148;-1.786;2023-08-07T00:30:25;13.50;99.90
16976;DHT22;8604;48.148;-1.786;2023-08-07T00:32:53;13.50;99.90
16976;DHT22;8604;48.148;-1.786;2023-08-07T00:35:22;13.50;99.90
16976;DHT22;8604;48.148;-1.786;2023-08-07T00:37:52;13.50;99.90
16976;DHT22;8604;48.148;-1.786;2023-08-07T00:40:21;13.50;99.90
16976;DHT22;8604;48.148;-1.786;2023-08-07T00:42:52;13.50;99.90
16976;DHT22;8604;48.148;-1.786;2023-08-07T00:45:20;13.40;99.90
16976;DHT22;8604;48.148;-1.786;2023-08-07T00:47:49;13.40;99.90
16976;DHT22;8604;48.148;-1.786;2023-08-07T00:50:18;13.40;99.90
16976;DHT22;8604;48.148;-1.786;2023-08-07T00:52:48;13.40;99.90
16976;DHT22;8604;48.148;-1.786;2023-08-07T00:55:18;13.30;99.90
16976;DHT22;8604;48.148;-1.786;2023-08-07T00:57:46;13.30;99.90
16976;DHT22;8604;48.148;-1.786;2023-08-07T01:00:15;13.30;99.90
16976;DHT22;8604;48.148;-1.786;2023-08-07T01:02:44;13.30;99.90
16976;DHT22;8604;48.148;-1.786;2023-08-07T01:05:14;13.30;99.90
16976;DHT22;8604;48.148;-1.786;2023-08-07T01:07:44;13.30;99.90
16976;DHT22;8604;48.148;-1.786;2023-08-07T01:10:12;13.30;99.90
16976;DHT22;8604;48.148;-1.786;2023-08-07T01:12:52;13.20;99.90
16976;DHT22;8604;48.148;-1.786;2023-08-07T01:15:30;13.20;99.90
16976;DHT22;8604;48.148;-1.786;2023-08-07T01:18:00;13.20;99.90
16976;DHT22;8604;48.148;-1.786;2023-08-07T01:20:31;13.20;99.90
16976;DHT22;8604;48.148;-1.786;2023-08-07T01:23:01;13.20;99.90
16976;DHT22;8604;48.148;-1.786;2023-08-07T01:25:29;13.10;99.90
16976;DHT22;8604;48.148;-1.786;2023-08-07T01:28:02;13.10;99.90
16976;DHT22;8604;48.148;-1.786;2023-08-07T01:30:36;13.10;99.90
16976;DHT22;8604;48.148;-1.786;2023-08-07T01:33:11;13.10;99.90
16976;DHT22;8604;48.148;-1.786;2023-08-07T01:35:43;13.10;99.90
16976;DHT22;8604;48.148;-1.786;2023-08-07T01:38:13;13.00;99.90
16976;DHT22;8604;48.148;-1.786;2023-08-07T01:40:43;13.00;99.90
16976;DHT22;8604;48.148;-1.786;2023-08-07T01:43:12;13.00;99.90
16976;DHT22;8604;48.148;-1.786;2023-08-07T01:45:40;13.00;99.90
16976;DHT22;8604;48.148;-1.786;2023-08-07T01:48:08;12.90;99.90
16976;DHT22;8604;48.148;-1.786;2023-08-07T01:50:38;13.00;99.90
16976;DHT22;8604;48.148;-1.786;2023-08-07T01:53:08;12.90;99.90
16976;DHT22;8604;48.148;-1.786;2023-08-07T01:55:37;12.90;99.90
16976;DHT22;8604;48.148;-1.786;2023-08-07T01:58:06;12.90;99.90
16976;DHT22;8604;48.148;-1.786;2023-08-07T02:00:34;12.90;99.90
16976;DHT22;8604;48.148;-1.786;2023-08-07T02:03:02;12.90;99.90
16976;DHT22;8604;48.148;-1.786;2023-08-07T02:05:31;12.80;99.90
16976;DHT22;8604;48.148;-1.786;2023-08-07T02:07:59;12.80;99.90
16976;DHT22;8604;48.148;-1.786;2023-08-07T02:10:27;12.80;99.90
16976;DHT22;8604;48.148;-1.786;2023-08-07T02:12:58;12.80;99.90
16976;DHT22;8604;48.148;-1.786;2023-08-07T02:15:27;12.80;99.90
16976;DHT22;8604;48.148;-1.786;2023-08-07T02:17:55;12.70;99.90
16976;DHT22;8604;48.148;-1.786;2023-08-07T02:20:24;12.80;99.90
16976;DHT22;8604;48.148;-1.786;2023-08-07T02:22:52;12.70;99.90
16976;DHT22;8604;48.148;-1.786;2023-08-07T02:25:21;12.70;99.90
16976;DHT22;8604;48.148;-1.786;2023-08-07T02:27:49;12.70;99.90
16976;DHT22;8604;48.148;-1.786;2023-08-07T02:30:19;12.70;99.90
16976;DHT22;8604;48.148;-1.786;2023-08-07T02:32:49;12.70;99.90
16976;DHT22;8604;48.148;-1.786;2023-08-07T02:35:18;12.60;99.90
16976;DHT22;8604;48.148;-1.786;2023-08-07T02:37:46;12.70;99.90
16976;DHT22;8604;48.148;-1.786;2023-08-07T02:40:14;12.60;99.90
16976;DHT22;8604;48.148;-1.786;2023-08-07T02:42:44;12.60;99.90
16976;DHT22;8604;48.148;-1.786;2023-08-07T02:45:13;12.60;99.90
16976;DHT22;8604;48.148;-1.786;2023-08-07T02:47:43;12.60;99.90
16976;DHT22;8604;48.148;-1.786;2023-08-07T02:50:11;12.60;99.90
16976;DHT22;8604;48.148;-1.786;2023-08-07T02:52:39;12.60;99.90
16976;DHT22;8604;48.148;-1.786;2023-08-07T02:55:11;12.60;99.90
16976;DHT22;8604;48.148;-1.786;2023-08-07T02:57:39;12.60;99.90
16976;DHT22;8604;48.148;-1.786;2023-08-07T03:00:08;12.50;99.90
16976;DHT22;8604;48.148;-1.786;2023-08-07T03:02:37;12.50;99.90
16976;DHT22;8604;48.148;-1.786;2023-08-07T03:05:07;12.50;99.90
16976;DHT22;8604;48.148;-1.786;2023-08-07T03:07:36;12.50;99.90
16976;DHT22;8604;48.148;-1.786;2023-08-07T03:10:05;12.50;99.90
16976;DHT22;8604;48.148;-1.786;2023-08-07T03:12:34;12.50;99.90
16976;DHT22;8604;48.148;-1.786;2023-08-07T03:15:03;12.50;99.90
16976;DHT22;8604;48.148;-1.786;2023-08-07T03:17:31;12.40;99.90
16976;DHT22;8604;48.148;-1.786;2023-08-07T03:20:00;12.40;99.90
16976;DHT22;8604;48.148;-1.786;2023-08-07T03:22:29;12.40;99.90
16976;DHT22;8604;48.148;-1.786;2023-08-07T03:24:58;12.40;99.90
16976;DHT22;8604;48.148;-1.786;2023-08-07T03:27:27;12.40;99.90
16976;DHT22;8604;48.148;-1.786;2023-08-07T03:29:56;12.30;99.90
16976;DHT22;8604;48.148;-1.786;2023-08-07T03:32:28;12.30;99.90
16976;DHT22;8604;48.148;-1.786;2023-08-07T03:34:57;12.30;99.90
16976;DHT22;8604;48.148;-1.786;2023-08-07T03:37:26;12.30;99.90
16976;DHT22;8604;48.148;-1.786;2023-08-07T03:39:56;12.30;99.90
16976;DHT22;8604;48.148;-1.786;2023-08-07T03:42:24;12.30;99.90
16976;DHT22;8604;48.148;-1.786;2023-08-07T03:44:54;12.30;99.90
16976;DHT22;8604;48.148;-1.786;2023-08-07T03:47:22;12.20;99.90
16976;DHT22;8604;48.148;-1.786;2023-08-07T03:49:51;12.20;99.90
16976;DHT22;8604;48.148;-1.786;2023-08-07T03:52:21;12.20;99.90
16976;DHT22;8604;48.148;-1.786;2023-08-07T03:54:49;12.20;99.90
16976;DHT22;8604;48.148;-1.786;2023-08-07T03:57:19;12.20;99.90
16976;DHT22;8604;48.148;-1.786;2023-08-07T03:59:48;12.20;99.90
16976;DHT22;8604;48.148;-1.786;2023-08-07T04:02:17;12.20;99.90
16976;DHT22;8604;48.148;-1.786;2023-08-07T04:04:45;12.20;99.90
16976;DHT22;8604;48.148;-1.786;2023-08-07T04:07:13;12.10;99.90
16976;DHT22;8604;48.148;-1.786;2023-08-07T04:09:42;12.10;99.90
16976;DHT22;8604;48.148;-1.786;2023-08-07T04:12:10;12.10;99.90
16976;DHT22;8604;48.148;-1.786;2023-08-07T04:14:39;12.10;99.90
16976;DHT22;8604;48.148;-1.786;2023-08-07T04:17:08;12.10;99.90
16976;DHT22;8604;48.148;-1.786;2023-08-07T04:19:37;12.10;99.90
16976;DHT22;8604;48.148;-1.786;2023-08-07T04:22:06;12.10;99.90
16976;DHT22;8604;48.148;-1.786;2023-08-07T04:24:34;12.00;99.90
16976;DHT22;8604;48.148;-1.786;2023-08-07T04:27:02;12.00;99.90
16976;DHT22;8604;48.148;-1.786;2023-08-07T04:29:31;12.00;99.90
16976;DHT22;8604;48.148;-1.786;2023-08-07T04:32:01;12.00;99.90
16976;DHT22;8604;48.148;-1.786;2023-08-07T04:34:29;12.00;99.90
16976;DHT22;8604;48.148;-1.786;2023-08-07T04:36:57;12.00;99.90
16976;DHT22;8604;48.148;-1.786;2023-08-07T04:39:26;11.90;99.90
16976;DHT22;8604;48.148;-1.786;2023-08-07T04:41:54;11.90;99.90
16976;DHT22;8604;48.148;-1.786;2023-08-07T04:44:22;11.90;99.90
16976;DHT22;8604;48.148;-1.786;2023-08-07T04:46:51;11.90;99.90
16976;DHT22;8604;48.148;-1.786;2023-08-07T04:49:21;11.80;99.90
16976;DHT22;8604;48.148;-1.786;2023-08-07T04:51:49;11.80;99.90
16976;DHT22;8604;48.148;-1.786;2023-08-07T04:54:17;11.80;99.90
16976;DHT22;8604;48.148;-1.786;2023-08-07T04:56:46;11.80;99.90
16976;DHT22;8604;48.148;-1.786;2023-08-07T04:59:14;11.80;99.90
16976;DHT22;8604;48.148;-1.786;2023-08-07T05:01:42;11.80;99.90
16976;DHT22;8604;48.148;-1.786;2023-08-07T05:04:11;11.90;99.90
16976;DHT22;8604;48.148;-1.786;2023-08-07T05:06:40;11.90;99.90
16976;DHT22;8604;48.148;-1.786;2023-08-07T05:09:09;11.90;99.90
16976;DHT22;8604;48.148;-1.786;2023-08-07T05:11:37;11.90;99.90
16976;DHT22;8604;48.148;-1.786;2023-08-07T05:14:05;11.90;99.90
16976;DHT22;8604;48.148;-1.786;2023-08-07T05:16:33;11.90;99.90
16976;DHT22;8604;48.148;-1.786;2023-08-07T05:19:02;12.00;99.90
16976;DHT22;8604;48.148;-1.786;2023-08-07T05:21:30;12.00;99.90
16976;DHT22;8604;48.148;-1.786;2023-08-07T05:24:00;12.00;99.90
16976;DHT22;8604;48.148;-1.786;2023-08-07T05:26:28;12.10;99.90
16976;DHT22;8604;48.148;-1.786;2023-08-07T05:28:57;12.10;99.90
16976;DHT22;8604;48.148;-1.786;2023-08-07T05:31:25;12.20;99.90
16976;DHT22;8604;48.148;-1.786;2023-08-07T05:33:55;12.20;99.90
16976;DHT22;8604;48.148;-1.786;2023-08-07T05:36:24;12.20;99.90
16976;DHT22;8604;48.148;-1.786;2023-08-07T05:38:52;12.20;99.90
16976;DHT22;8604;48.148;-1.786;2023-08-07T05:41:22;12.30;99.90
16976;DHT22;8604;48.148;-1.786;2023-08-07T05:43:50;12.30;99.90
16976;DHT22;8604;48.148;-1.786;2023-08-07T05:46:18;12.30;99.90
16976;DHT22;8604;48.148;-1.786;2023-08-07T05:48:47;12.40;99.90
16976;DHT22;8604;48.148;-1.786;2023-08-07T05:51:15;12.50;99.90
16976;DHT22;8604;48.148;-1.786;2023-08-07T05:53:43;12.50;99.90
16976;DHT22;8604;48.148;-1.786;2023-08-07T05:56:12;12.60;99.90
16976;DHT22;8604;48.148;-1.786;2023-08-07T05:58:41;12.60;99.90
16976;DHT22;8604;48.148;-1.786;2023-08-07T06:01:10;12.70;99.90
16976;DHT22;8604;48.148;-1.786;2023-08-07T06:03:38;12.80;99.90
16976;DHT22;8604;48.148;-1.786;2023-08-07T06:06:06;12.80;99.90
16976;DHT22;8604;48.148;-1.786;2023-08-07T06:08:35;12.90;99.90
16976;DHT22;8604;48.148;-1.786;2023-08-07T06:11:03;12.90;99.90
16976;DHT22;8604;48.148;-1.786;2023-08-07T06:13:32;13.00;99.90
16976;DHT22;8604;48.148;-1.786;2023-08-07T06:16:04;13.10;99.90
16976;DHT22;8604;48.148;-1.786;2023-08-07T06:18:33;13.20;99.90
16976;DHT22;8604;48.148;-1.786;2023-08-07T06:21:02;13.20;99.90
16976;DHT22;8604;48.148;-1.786;2023-08-07T06:23:33;13.30;99.90
16976;DHT22;8604;48.148;-1.786;2023-08-07T06:26:02;13.40;99.90
16976;DHT22;8604;48.148;-1.786;2023-08-07T06:28:32;13.40;99.90
16976;DHT22;8604;48.148;-1.786;2023-08-07T06:31:01;13.50;99.90
16976;DHT22;8604;48.148;-1.786;2023-08-07T06:33:31;13.50;99.90
16976;DHT22;8604;48.148;-1.786;2023-08-07T06:36:00;13.50;99.90
16976;DHT22;8604;48.148;-1.786;2023-08-07T06:38:29;13.60;99.90
16976;DHT22;8604;48.148;-1.786;2023-08-07T06:40:57;13.60;99.90
16976;DHT22;8604;48.148;-1.786;2023-08-07T06:43:26;13.60;99.90
16976;DHT22;8604;48.148;-1.786;2023-08-07T06:45:55;13.70;99.90
16976;DHT22;8604;48.148;-1.786;2023-08-07T06:48:24;13.80;99.90
16976;DHT22;8604;48.148;-1.786;2023-08-07T06:50:54;13.90;99.90
16976;DHT22;8604;48.148;-1.786;2023-08-07T06:53:23;14.00;99.90
16976;DHT22;8604;48.148;-1.786;2023-08-07T06:55:53;14.20;99.90
16976;DHT22;8604;48.148;-1.786;2023-08-07T06:58:24;14.40;99.90
16976;DHT22;8604;48.148;-1.786;2023-08-07T07:00:52;14.60;99.90
16976;DHT22;8604;48.148;-1.786;2023-08-07T07:03:21;14.80;99.90
16976;DHT22;8604;48.148;-1.786;2023-08-07T07:05:49;15.00;99.90
16976;DHT22;8604;48.148;-1.786;2023-08-07T07:08:19;15.20;99.90
16976;DHT22;8604;48.148;-1.786;2023-08-07T07:10:47;15.50;99.90
16976;DHT22;8604;48.148;-1.786;2023-08-07T07:13:15;15.90;99.90
16976;DHT22;8604;48.148;-1.786;2023-08-07T07:15:44;16.30;99.90
16976;DHT22;8604;48.148;-1.786;2023-08-07T07:18:12;16.70;99.90
16976;DHT22;8604;48.148;-1.786;2023-08-07T07:20:40;17.10;99.90
16976;DHT22;8604;48.148;-1.786;2023-08-07T07:23:08;17.30;99.90
16976;DHT22;8604;48.148;-1.786;2023-08-07T07:25:38;17.60;99.90
16976;DHT22;8604;48.148;-1.786;2023-08-07T07:28:06;18.00;99.90
16976;DHT22;8604;48.148;-1.786;2023-08-07T07:30:35;18.40;99.90
16976;DHT22;8604;48.148;-1.786;2023-08-07T07:33:03;18.70;99.90
16976;DHT22;8604;48.148;-1.786;2023-08-07T07:35:32;19.20;99.90
16976;DHT22;8604;48.148;-1.786;2023-08-07T07:38:02;19.50;99.90
16976;DHT22;8604;48.148;-1.786;2023-08-07T07:40:30;19.90;99.90
16976;DHT22;8604;48.148;-1.786;2023-08-07T07:43:00;20.00;99.90
16976;DHT22;8604;48.148;-1.786;2023-08-07T07:45:29;20.00;99.90
16976;DHT22;8604;48.148;-1.786;2023-08-07T07:47:57;20.10;99.90
16976;DHT22;8604;48.148;-1.786;2023-08-07T07:50:26;20.30;99.90
16976;DHT22;8604;48.148;-1.786;2023-08-07T07:52:54;20.60;99.90
16976;DHT22;8604;48.148;-1.786;2023-08-07T07:55:22;21.10;99.90
16976;DHT22;8604;48.148;-1.786;2023-08-07T07:57:51;21.60;99.90
16976;DHT22;8604;48.148;-1.786;2023-08-07T08:00:21;22.00;99.90
16976;DHT22;8604;48.148;-1.786;2023-08-07T08:02:53;22.40;99.90
16976;DHT22;8604;48.148;-1.786;2023-08-07T08:05:21;22.90;99.90
16976;DHT22;8604;48.148;-1.786;2023-08-07T08:07:50;23.40;99.90
16976;DHT22;8604;48.148;-1.786;2023-08-07T08:10:18;23.90;99.90
16976;DHT22;8604;48.148;-1.786;2023-08-07T08:12:47;24.00;99.90
16976;DHT22;8604;48.148;-1.786;2023-08-07T08:15:15;23.90;99.90
16976;DHT22;8604;48.148;-1.786;2023-08-07T08:17:45;23.70;99.90
16976;DHT22;8604;48.148;-1.786;2023-08-07T08:20:14;23.60;99.90
16976;DHT22;8604;48.148;-1.786;2023-08-07T08:22:45;23.60;99.90
16976;DHT22;8604;48.148;-1.786;2023-08-07T08:25:13;24.00;99.90
16976;DHT22;8604;48.148;-1.786;2023-08-07T08:27:41;24.90;99.90
16976;DHT22;8604;48.148;-1.786;2023-08-07T08:30:10;25.60;99.90
16976;DHT22;8604;48.148;-1.786;2023-08-07T08:32:39;26.40;99.90
16976;DHT22;8604;48.148;-1.786;2023-08-07T08:35:09;27.20;99.90
16976;DHT22;8604;48.148;-1.786;2023-08-07T08:37:38;27.60;99.90
16976;DHT22;8604;48.148;-1.786;2023-08-07T08:40:08;27.70;99.90
16976;DHT22;8604;48.148;-1.786;2023-08-07T08:42:39;27.00;99.90
16976;DHT22;8604;48.148;-1.786;2023-08-07T08:45:09;27.00;99.90
16976;DHT22;8604;48.148;-1.786;2023-08-07T08:47:39;26.40;99.90
16976;DHT22;8604;48.148;-1.786;2023-08-07T08:50:11;25.90;99.90
16976;DHT22;8604;48.148;-1.786;2023-08-07T08:52:42;26.20;99.90
16976;DHT22;8604;48.148;-1.786;2023-08-07T08:55:11;26.70;99.90
16976;DHT22;8604;48.148;-1.786;2023-08-07T08:57:40;27.50;99.90
16976;DHT22;8604;48.148;-1.786;2023-08-07T09:00:10;27.40;99.90
16976;DHT22;8604;48.148;-1.786;2023-08-07T09:02:45;28.00;99.90
16976;DHT22;8604;48.148;-1.786;2023-08-07T09:05:16;28.40;99.90
16976;DHT22;8604;48.148;-1.786;2023-08-07T09:07:45;28.40;99.90
16976;DHT22;8604;48.148;-1.786;2023-08-07T09:10:14;28.20;99.90
16976;DHT22;8604;48.148;-1.786;2023-08-07T09:13:00;27.90;99.90
16976;DHT22;8604;48.148;-1.786;2023-08-07T09:15:32;26.90;99.90
16976;DHT22;8604;48.148;-1.786;2023-08-07T09:18:01;25.90;99.90
16976;DHT22;8604;48.148;-1.786;2023-08-07T09:20:32;26.10;99.90
16976;DHT22;8604;48.148;-1.786;2023-08-07T09:23:01;26.10;99.90
16976;DHT22;8604;48.148;-1.786;2023-08-07T09:25:30;27.10;99.90
16976;DHT22;8604;48.148;-1.786;2023-08-07T09:28:01;27.70;99.90
16976;DHT22;8604;48.148;-1.786;2023-08-07T09:30:32;28.60;99.90
16976;DHT22;8604;48.148;-1.786;2023-08-07T09:33:02;28.70;99.90
16976;DHT22;8604;48.148;-1.786;2023-08-07T09:35:32;28.30;99.90
16976;DHT22;8604;48.148;-1.786;2023-08-07T09:38:01;27.40;99.90
16976;DHT22;8604;48.148;-1.786;2023-08-07T09:40:30;26.70;99.90
16976;DHT22;8604;48.148;-1.786;2023-08-07T09:43:01;27.30;99.90
16976;DHT22;8604;48.148;-1.786;2023-08-07T09:45:30;28.30;99.90
16976;DHT22;8604;48.148;-1.786;2023-08-07T09:47:59;29.10;99.90
16976;DHT22;8604;48.148;-1.786;2023-08-07T09:50:28;29.80;99.90
16976;DHT22;8604;48.148;-1.786;2023-08-07T09:52:58;30.30;99.90
16976;DHT22;8604;48.148;-1.786;2023-08-07T09:55:27;30.50;99.90
16976;DHT22;8604;48.148;-1.786;2023-08-07T09:57:55;30.00;99.90
16976;DHT22;8604;48.148;-1.786;2023-08-07T10:00:24;29.10;99.90
16976;DHT22;8604;48.148;-1.786;2023-08-07T10:02:54;28.40;99.90
16976;DHT22;8604;48.148;-1.786;2023-08-07T10:05:22;29.10;99.90
16976;DHT22;8604;48.148;-1.786;2023-08-07T10:07:51;29.30;99.90
16976;DHT22;8604;48.148;-1.786;2023-08-07T10:10:23;29.90;99.90
16976;DHT22;8604;48.148;-1.786;2023-08-07T10:12:53;30.50;99.90
16976;DHT22;8604;48.148;-1.786;2023-08-07T10:15:23;30.80;99.90
16976;DHT22;8604;48.148;-1.786;2023-08-07T10:17:52;30.90;99.90
16976;DHT22;8604;48.148;-1.786;2023-08-07T10:20:21;31.10;99.90
16976;DHT22;8604;48.148;-1.786;2023-08-07T10:22:52;31.30;99.90
16976;DHT22;8604;48.148;-1.786;2023-08-07T10:25:23;31.30;99.90
16976;DHT22;8604;48.148;-1.786;2023-08-07T10:27:53;31.10;99.90
16976;DHT22;8604;48.148;-1.786;2023-08-07T10:30:27;31.10;99.90
16976;DHT22;8604;48.148;-1.786;2023-08-07T10:32:57;31.20;99.90
16976;DHT22;8604;48.148;-1.786;2023-08-07T10:35:29;31.20;99.90
16976;DHT22;8604;48.148;-1.786;2023-08-07T10:38:05;30.80;99.90
16976;DHT22;8604;48.148;-1.786;2023-08-07T10:41:00;30.70;99.90
16976;DHT22;8604;48.148;-1.786;2023-08-07T10:43:29;30.30;99.90
16976;DHT22;8604;48.148;-1.786;2023-08-07T10:46:05;29.90;99.90
16976;DHT22;8604;48.148;-1.786;2023-08-07T10:48:41;28.80;99.90
16976;DHT22;8604;48.148;-1.786;2023-08-07T10:51:12;28.50;99.90
16976;DHT22;8604;48.148;-1.786;2023-08-07T10:53:42;28.70;99.90
16976;DHT22;8604;48.148;-1.786;2023-08-07T10:56:17;29.30;99.90
16976;DHT22;8604;48.148;-1.786;2023-08-07T10:58:49;29.20;99.90
16976;DHT22;8604;48.148;-1.786;2023-08-07T11:01:20;29.00;99.90
16976;DHT22;8604;48.148;-1.786;2023-08-07T11:03:50;29.00;99.90
16976;DHT22;8604;48.148;-1.786;2023-08-07T11:06:22;29.30;99.90
16976;DHT22;8604;48.148;-1.786;2023-08-07T11:08:51;29.60;99.90
16976;DHT22;8604;48.148;-1.786;2023-08-07T11:11:21;29.50;99.90
16976;DHT22;8604;48.148;-1.786;2023-08-07T11:13:49;29.70;99.90
16976;DHT22;8604;48.148;-1.786;2023-08-07T11:16:18;30.10;99.90
16976;DHT22;8604;48.148;-1.786;2023-08-07T11:18:49;30.20;99.90
16976;DHT22;8604;48.148;-1.786;2023-08-07T11:21:18;30.30;99.90
16976;DHT22;8604;48.148;-1.786;2023-08-07T11:23:47;31.00;99.90
16976;DHT22;8604;48.148;-1.786;2023-08-07T11:26:16;31.30;99.90
16976;DHT22;8604;48.148;-1.786;2023-08-07T11:28:50;30.80;99.90
16976;DHT22;8604;48.148;-1.786;2023-08-07T11:31:18;30.30;99.90
16976;DHT22;8604;48.148;-1.786;2023-08-07T11:33:49;29.60;99.90
16976;DHT22;8604;48.148;-1.786;2023-08-07T11:36:18;29.40;99.90
16976;DHT22;8604;48.148;-1.786;2023-08-07T11:38:46;29.20;99.90
16976;DHT22;8604;48.148;-1.786;2023-08-07T11:41:17;29.00;99.90
16976;DHT22;8604;48.148;-1.786;2023-08-07T11:43:46;29.20;99.90
16976;DHT22;8604;48.148;-1.786;2023-08-07T11:46:16;29.10;99.90
16976;DHT22;8604;48.148;-1.786;2023-08-07T11:48:44;29.30;99.90
16976;DHT22;8604;48.148;-1.786;2023-08-07T11:51:13;29.40;99.90
16976;DHT22;8604;48.148;-1.786;2023-08-07T11:53:41;29.30;99.90
16976;DHT22;8604;48.148;-1.786;2023-08-07T11:56:11;29.10;99.90
16976;DHT22;8604;48.148;-1.786;2023-08-07T11:58:43;28.60;99.90
16976;DHT22;8604;48.148;-1.786;2023-08-07T12:01:17;28.20;99.90
16976;DHT22;8604;48.148;-1.786;2023-08-07T12:03:53;27.80;99.90
16976;DHT22;8604;48.148;-1.786;2023-08-07T12:06:23;27.60;99.90
16976;DHT22;8604;48.148;-1.786;2023-08-07T12:08:55;27.60;99.90
16976;DHT22;8604;48.148;-1.786;2023-08-07T12:11:24;27.50;99.90
16976;DHT22;8604;48.148;-1.786;2023-08-07T12:13:53;27.50;99.90
16976;DHT22;8604;48.148;-1.786;2023-08-07T12:16:23;27.50;99.90
16976;DHT22;8604;48.148;-1.786;2023-08-07T12:18:52;27.50;99.90
16976;DHT22;8604;48.148;-1.786;2023-08-07T12:21:22;27.50;99.90
16976;DHT22;8604;48.148;-1.786;2023-08-07T12:23:54;27.20;99.90
16976;DHT22;8604;48.148;-1.786;2023-08-07T12:26:23;27.10;99.90
16976;DHT22;8604;48.148;-1.786;2023-08-07T12:28:51;26.60;99.90
16976;DHT22;8604;48.148;-1.786;2023-08-07T12:31:20;26.70;99.90
16976;DHT22;8604;48.148;-1.786;2023-08-07T12:33:50;26.50;99.90
16976;DHT22;8604;48.148;-1.786;2023-08-07T12:36:19;26.60;99.90
16976;DHT22;8604;48.148;-1.786;2023-08-07T12:38:47;26.70;99.90
16976;DHT22;8604;48.148;-1.786;2023-08-07T12:41:16;26.50;99.90
16976;DHT22;8604;48.148;-1.786;2023-08-07T12:43:47;26.20;99.90
16976;DHT22;8604;48.148;-1.786;2023-08-07T12:46:15;26.40;99.90
16976;DHT22;8604;48.148;-1.786;2023-08-07T12:48:46;26.60;99.90
16976;DHT22;8604;48.148;-1.786;2023-08-07T12:51:16;26.60;99.90
16976;DHT22;8604;48.148;-1.786;2023-08-07T12:53:45;26.40;99.90
16976;DHT22;8604;48.148;-1.786;2023-08-07T12:56:14;26.20;99.90
16976;DHT22;8604;48.148;-1.786;2023-08-07T12:58:43;26.10;99.90
16976;DHT22;8604;48.148;-1.786;2023-08-07T13:01:12;26.20;99.90
16976;DHT22;8604;48.148;-1.786;2023-08-07T13:03:41;26.10;99.90
16976;DHT22;8604;48.148;-1.786;2023-08-07T13:06:09;26.10;99.90
16976;DHT22;8604;48.148;-1.786;2023-08-07T13:08:40;26.20;99.90
16976;DHT22;8604;48.148;-1.786;2023-08-07T13:11:09;26.10;99.90
16976;DHT22;8604;48.148;-1.786;2023-08-07T13:13:37;26.10;99.90
16976;DHT22;8604;48.148;-1.786;2023-08-07T13:16:06;25.90;99.90
16976;DHT22;8604;48.148;-1.786;2023-08-07T13:18:35;25.80;99.90
16976;DHT22;8604;48.148;-1.786;2023-08-07T13:21:03;25.80;99.90
16976;DHT22;8604;48.148;-1.786;2023-08-07T13:23:32;25.70;99.90
16976;DHT22;8604;48.148;-1.786;2023-08-07T13:26:01;25.80;99.90
16976;DHT22;8604;48.148;-1.786;2023-08-07T13:28:29;25.90;99.90
16976;DHT22;8604;48.148;-1.786;2023-08-07T13:30:58;25.80;99.90
16976;DHT22;8604;48.148;-1.786;2023-08-07T13:33:26;25.50;99.90
16976;DHT22;8604;48.148;-1.786;2023-08-07T13:35:55;25.50;99.90
16976;DHT22;8604;48.148;-1.786;2023-08-07T13:38:23;25.40;99.90
16976;DHT22;8604;48.148;-1.786;2023-08-07T13:40:52;25.40;99.90
16976;DHT22;8604;48.148;-1.786;2023-08-07T13:43:21;25.50;99.90
16976;DHT22;8604;48.148;-1.786;2023-08-07T13:45:50;25.50;99.90
16976;DHT22;8604;48.148;-1.786;2023-08-07T13:48:18;25.60;99.90
16976;DHT22;8604;48.148;-1.786;2023-08-07T13:50:46;25.50;99.90
16976;DHT22;8604;48.148;-1.786;2023-08-07T13:53:15;25.60;99.90
16976;DHT22;8604;48.148;-1.786;2023-08-07T13:55:43;25.50;99.90
16976;DHT22;8604;48.148;-1.786;2023-08-07T13:58:12;25.40;99.90
16976;DHT22;8604;48.148;-1.786;2023-08-07T14:00:44;25.50;99.90
16976;DHT22;8604;48.148;-1.786;2023-08-07T14:03:12;25.50;99.90
16976;DHT22;8604;48.148;-1.786;2023-08-07T14:05:41;25.30;99.90
16976;DHT22;8604;48.148;-1.786;2023-08-07T14:08:09;25.20;99.90
16976;DHT22;8604;48.148;-1.786;2023-08-07T14:10:38;25.20;99.90
16976;DHT22;8604;48.148;-1.786;2023-08-07T14:13:09;25.20;99.90
16976;DHT22;8604;48.148;-1.786;2023-08-07T14:15:38;25.30;99.90
16976;DHT22;8604;48.148;-1.786;2023-08-07T14:18:08;25.40;99.90
16976;DHT22;8604;48.148;-1.786;2023-08-07T14:20:38;25.10;99.90
16976;DHT22;8604;48.148;-1.786;2023-08-07T14:23:26;25.10;99.90
16976;DHT22;8604;48.148;-1.786;2023-08-07T14:26:15;25.20;99.90
16976;DHT22;8604;48.148;-1.786;2023-08-07T14:28:44;25.20;99.90
16976;DHT22;8604;48.148;-1.786;2023-08-07T14:31:13;25.20;99.90
16976;DHT22;8604;48.148;-1.786;2023-08-07T14:33:43;25.30;99.90
16976;DHT22;8604;48.148;-1.786;2023-08-07T14:36:11;25.30;99.90
16976;DHT22;8604;48.148;-1.786;2023-08-07T14:38:39;25.10;99.90
16976;DHT22;8604;48.148;-1.786;2023-08-07T14:41:08;25.10;99.90
16976;DHT22;8604;48.148;-1.786;2023-08-07T14:43:36;25.30;99.90
16976;DHT22;8604;48.148;-1.786;2023-08-07T14:46:04;25.30;99.90
16976;DHT22;8604;48.148;-1.786;2023-08-07T14:48:33;25.20;99.90
16976;DHT22;8604;48.148;-1.786;2023-08-07T14:51:03;25.10;99.90
16976;DHT22;8604;48.148;-1.786;2023-08-07T14:53:31;25.30;99.90
16976;DHT22;8604;48.148;-1.786;2023-08-07T14:55:59;25.30;99.90
16976;DHT22;8604;48.148;-1.786;2023-08-07T14:58:28;25.40;99.90
16976;DHT22;8604;48.148;-1.786;2023-08-07T15:00:56;25.50;99.90
16976;DHT22;8604;48.148;-1.786;2023-08-07T15:03:25;25.50;99.90
16976;DHT22;8604;48.148;-1.786;2023-08-07T15:05:53;25.50;99.90
16976;DHT22;8604;48.148;-1.786;2023-08-07T15:08:23;25.50;99.90
16976;DHT22;8604;48.148;-1.786;2023-08-07T15:10:51;25.50;99.90
16976;DHT22;8604;48.148;-1.786;2023-08-07T15:13:20;25.60;99.90
16976;DHT22;8604;48.148;-1.786;2023-08-07T15:15:49;25.60;99.90
16976;DHT22;8604;48.148;-1.786;2023-08-07T15:18:17;25.70;99.90
16976;DHT22;8604;48.148;-1.786;2023-08-07T15:20:47;25.60;99.90
16976;DHT22;8604;48.148;-1.786;2023-08-07T15:23:15;25.50;99.90
16976;DHT22;8604;48.148;-1.786;2023-08-07T15:25:45;25.50;99.90
16976;DHT22;8604;48.148;-1.786;2023-08-07T15:28:13;25.40;99.90
16976;DHT22;8604;48.148;-1.786;2023-08-07T15:30:47;25.40;99.90
16976;DHT22;8604;48.148;-1.786;2023-08-07T15:33:16;25.40;99.90
16976;DHT22;8604;48.148;-1.786;2023-08-07T15:35:44;25.40;99.90
16976;DHT22;8604;48.148;-1.786;2023-08-07T15:38:13;25.40;99.90
16976;DHT22;8604;48.148;-1.786;2023-08-07T15:40:41;25.30;99.90
16976;DHT22;8604;48.148;-1.786;2023-08-07T15:43:11;25.10;99.90